Time;durP1;ratioP1;P1;durP2;ratioP2;P2;SDS_P1;SDS_P2;PMS_P1;PMS_P2;Temp;Humidity;BMP_temperature;BMP_pressure;BME280_temperature;BME280_humidity;BME280_pressure;Samples;Min_cycle;Max_cycle;Signal;HPM_P1;HPM_P2
2022/04/05 00:00:51;;;;;;;7.10;4.97;;;;;;;;;;5038812;28;20112;-69
2022/04/05 00:03:16;;;;;;;10.17;6.97;;;;;;;;;;5034477;28;20276;-69
2022/04/05 00:05:42;;;;;;;11.65;7.72;;;;;;;;;;5038220;28;20271;-69
2022/04/05 00:08:07;;;;;;;6.90;5.05;;;;;;;;;;5040490;28;20040;-69
2022/04/05 00:10:32;;;;;;;8.00;6.22;;;;;;;;;;5027191;28;20036;-69
2022/04/05 00:12:58;;;;;;;9.93;7.10;;;;;;;;;;5030972;28;20017;-70
2022/04/05 00:15:23;;;;;;;4.88;3.40;;;;;;;;;;5036640;28;20486;-69
2022/04/05 00:17:48;;;;;;;11.98;9.15;;;;;;;;;;5033078;28;20030;-70
2022/04/05 00:20:13;;;;;;;6.60;4.40;;;;;;;;;;5027462;28;20096;-70
2022/04/05 00:22:39;;;;;;;7.57;5.93;;;;;;;;;;5028122;28;20088;-70
2022/04/05 00:25:04;;;;;;;7.43;5.72;;;;;;;;;;5025711;28;20364;-70
2022/04/05 00:27:29;;;;;;;10.27;6.78;;;;;;;;;;5039107;28;20024;-70
2022/04/05 00:29:55;;;;;;;5.47;4.07;;;;;;;;;;5034897;28;20061;-70
2022/04/05 00:32:20;;;;;;;8.05;4.95;;;;;;;;;;5029028;28;20022;-70
2022/04/05 00:34:45;;;;;;;6.40;4.40;;;;;;;;;;5031552;28;20071;-70
2022/04/05 00:37:10;;;;;;;12.45;6.85;;;;;;;;;;5042188;28;20513;-70
2022/04/05 00:39:36;;;;;;;7.32;4.70;;;;;;;;;;5036906;28;20041;-70
2022/04/05 00:42:01;;;;;;;8.18;6.03;;;;;;;;;;5030928;28;20108;-69
2022/04/05 00:44:27;;;;;;;9.40;5.80;;;;;;;;;;5023851;28;20095;-70
2022/04/05 00:46:52;;;;;;;9.02;6.30;;;;;;;;;;5031767;28;20030;-69
2022/04/05 00:49:25;;;;;;;5.47;3.97;;;;;;;;;;5028793;28;20049;-70
2022/04/05 00:51:51;;;;;;;7.45;5.10;;;;;;;;;;5031437;28;20390;-70
2022/04/05 00:54:16;;;;;;;12.30;7.55;;;;;;;;;;5040278;28;20021;-70
2022/04/05 00:56:42;;;;;;;8.38;5.63;;;;;;;;;;5035472;28;20024;-70
2022/04/05 00:59:09;;;;;;;6.07;3.72;;;;;;;;;;5013256;28;20024;-69
2022/04/05 01:01:34;;;;;;;7.55;5.07;;;;;;;;;;5032760;28;20078;-69
2022/04/05 01:04:01;;;;;;;9.02;6.68;;;;;;;;;;5028213;28;20112;-70
2022/04/05 01:06:28;;;;;;;9.88;4.18;;;;;;;;;;5030646;28;20144;-69
2022/04/05 01:08:54;;;;;;;7.68;5.00;;;;;;;;;;5032805;28;20498;-69
2022/04/05 01:11:20;;;;;;;9.93;7.68;;;;;;;;;;5029970;28;20030;-70
2022/04/05 01:13:45;;;;;;;8.82;6.75;;;;;;;;;;5034545;28;20025;-70
2022/04/05 01:16:11;;;;;;;6.93;4.30;;;;;;;;;;5042331;28;20025;-70
2022/04/05 01:18:36;;;;;;;10.20;7.38;;;;;;;;;;5029179;28;20032;-70
2022/04/05 01:21:02;;;;;;;15.05;7.85;;;;;;;;;;5031282;28;20025;-70
2022/04/05 01:23:27;;;;;;;10.73;7.28;;;;;;;;;;5030462;28;20037;-70
2022/04/05 01:25:53;;;;;;;11.88;5.32;;;;;;;;;;5033997;28;20110;-70
2022/04/05 01:28:19;;;;;;;12.18;8.13;;;;;;;;;;5036615;28;20052;-70
2022/04/05 01:30:44;;;;;;;9.27;5.75;;;;;;;;;;5030976;28;20110;-70
2022/04/05 01:33:09;;;;;;;19.60;15.00;;;;;;;;;;5032778;28;20497;-70
2022/04/05 01:35:34;;;;;;;17.35;11.10;;;;;;;;;;5030207;28;20016;-70
2022/04/05 01:38:03;;;;;;;20.38;12.75;;;;;;;;;;5029967;28;20014;-71
2022/04/05 01:40:28;;;;;;;17.27;10.88;;;;;;;;;;5020919;28;20065;-70
2022/04/05 01:42:54;;;;;;;18.63;10.85;;;;;;;;;;5030524;28;20504;-70
2022/04/05 01:45:19;;;;;;;15.55;9.68;;;;;;;;;;5029359;28;20025;-70
2022/04/05 01:47:44;;;;;;;31.05;16.85;;;;;;;;;;5035687;28;20445;-69
2022/04/05 01:50:10;;;;;;;27.30;17.13;;;;;;;;;;5030455;28;20056;-69
2022/04/05 01:52:35;;;;;;;28.05;15.80;;;;;;;;;;5030896;28;20470;-69
2022/04/05 01:55:00;;;;;;;34.03;19.10;;;;;;;;;;5029381;28;20029;-69
2022/04/05 01:57:25;;;;;;;27.30;16.52;;;;;;;;;;5024186;28;20236;-69
2022/04/05 01:59:50;;;;;;;21.25;12.05;;;;;;;;;;5029585;28;20123;-70
2022/04/05 02:02:16;;;;;;;34.67;17.13;;;;;;;;;;5012542;28;20108;-69
2022/04/05 02:04:41;;;;;;;20.42;11.90;;;;;;;;;;5029695;28;20287;-70
2022/04/05 02:07:10;;;;;;;39.80;23.90;;;;;;;;;;5042570;28;20028;-70
2022/04/05 02:09:36;;;;;;;38.42;22.27;;;;;;;;;;5028979;28;20029;-69
2022/04/05 02:12:02;;;;;;;34.72;20.92;;;;;;;;;;5033460;28;20032;-69
2022/04/05 02:14:28;;;;;;;45.85;28.60;;;;;;;;;;5032678;28;20017;-70
2022/04/05 02:16:53;;;;;;;43.55;23.98;;;;;;;;;;5025172;28;20093;-69
2022/04/05 02:19:19;;;;;;;41.73;24.43;;;;;;;;;;5023866;28;20583;-70
2022/04/05 02:21:44;;;;;;;55.28;28.23;;;;;;;;;;5029990;28;20287;-70
2022/04/05 02:24:09;;;;;;;45.13;23.83;;;;;;;;;;5029143;28;20052;-69
2022/04/05 02:26:34;;;;;;;52.70;28.97;;;;;;;;;;5011674;28;20017;-69
2022/04/05 02:28:59;;;;;;;51.78;29.05;;;;;;;;;;5028820;28;20823;-70
2022/04/05 02:31:25;;;;;;;53.83;29.45;;;;;;;;;;5030468;28;20029;-70
2022/04/05 02:33:50;;;;;;;29.95;14.95;;;;;;;;;;5033669;28;20152;-69
2022/04/05 02:36:15;;;;;;;51.25;29.75;;;;;;;;;;5031540;28;20147;-70
2022/04/05 02:38:40;;;;;;;54.97;28.83;;;;;;;;;;5033569;28;20070;-70
2022/04/05 02:41:06;;;;;;;48.72;26.08;;;;;;;;;;5030530;28;20282;-69
2022/04/05 02:43:32;;;;;;;51.25;35.40;;;;;;;;;;5024474;28;20029;-70
2022/04/05 02:45:58;;;;;;;31.48;14.93;;;;;;;;;;5024445;28;20052;-69
2022/04/05 02:48:23;;;;;;;47.58;23.25;;;;;;;;;;5027343;28;20095;-70
2022/04/05 02:50:49;;;;;;;48.97;28.20;;;;;;;;;;5027911;28;20494;-70
2022/04/05 02:53:14;;;;;;;49.55;27.75;;;;;;;;;;5022801;28;20028;-70
2022/04/05 02:55:39;;;;;;;46.15;25.67;;;;;;;;;;5029090;28;20096;-69
2022/04/05 02:58:05;;;;;;;41.38;21.75;;;;;;;;;;5026588;28;20021;-69
2022/04/05 03:00:30;;;;;;;42.70;23.52;;;;;;;;;;5029083;28;20025;-70
2022/04/05 03:02:55;;;;;;;32.55;19.02;;;;;;;;;;5032276;28;20029;-69
2022/04/05 03:05:22;;;;;;;31.93;21.60;;;;;;;;;;5029241;28;20603;-70
2022/04/05 03:07:47;;;;;;;38.97;19.77;;;;;;;;;;5027173;28;20341;-70
2022/04/05 03:10:13;;;;;;;35.10;22.33;;;;;;;;;;5028351;28;20041;-70
2022/04/05 03:12:38;;;;;;;35.17;17.70;;;;;;;;;;5029074;28;20029;-70
2022/04/05 03:15:04;;;;;;;37.10;18.80;;;;;;;;;;5019499;28;20017;-70
2022/04/05 03:17:29;;;;;;;34.08;18.98;;;;;;;;;;5028889;28;20104;-70
2022/04/05 03:19:54;;;;;;;38.23;23.30;;;;;;;;;;5026902;28;20422;-69
2022/04/05 03:22:20;;;;;;;40.00;20.85;;;;;;;;;;5028400;28;20280;-69
2022/04/05 03:24:46;;;;;;;37.15;24.27;;;;;;;;;;5033723;28;20025;-69
2022/04/05 03:27:11;;;;;;;43.25;22.17;;;;;;;;;;5026040;28;20025;-69
2022/04/05 03:29:36;;;;;;;40.95;20.42;;;;;;;;;;5028837;28;20036;-69
2022/04/05 03:32:01;;;;;;;39.30;21.15;;;;;;;;;;5027667;28;20018;-69
2022/04/05 03:34:27;;;;;;;33.00;22.55;;;;;;;;;;5028200;28;20021;-69
2022/04/05 03:36:52;;;;;;;33.97;17.27;;;;;;;;;;5025440;28;20466;-69
2022/04/05 03:39:17;;;;;;;30.95;22.00;;;;;;;;;;5024216;28;20769;-70
2022/04/05 03:41:44;;;;;;;28.67;15.13;;;;;;;;;;5028025;28;20543;-69
2022/04/05 03:44:10;;;;;;;28.90;15.75;;;;;;;;;;5035884;28;20664;-69
2022/04/05 03:46:35;;;;;;;31.42;15.88;;;;;;;;;;5029088;28;20017;-70
2022/04/05 03:49:00;;;;;;;31.52;17.95;;;;;;;;;;5028474;28;20478;-69
2022/04/05 03:51:25;;;;;;;30.92;17.60;;;;;;;;;;5025967;28;20048;-69
2022/04/05 03:53:51;;;;;;;29.27;16.90;;;;;;;;;;5026268;28;20021;-69
2022/04/05 03:56:16;;;;;;;30.92;16.73;;;;;;;;;;5021060;28;20698;-70
2022/04/05 03:58:41;;;;;;;28.20;16.53;;;;;;;;;;5025214;28;20041;-69
2022/04/05 04:01:07;;;;;;;28.38;14.68;;;;;;;;;;5029390;28;20267;-70
2022/04/05 04:03:32;;;;;;;24.90;15.15;;;;;;;;;;5030150;28;20024;-69
2022/04/05 04:05:59;;;;;;;24.52;14.00;;;;;;;;;;5034733;28;20025;-69
2022/04/05 04:08:24;;;;;;;24.95;15.20;;;;;;;;;;5031979;28;20432;-70
2022/04/05 04:10:51;;;;;;;26.23;14.00;;;;;;;;;;5030784;28;20048;-69
2022/04/05 04:13:16;;;;;;;26.00;16.42;;;;;;;;;;5025060;28;20021;-69
2022/04/05 04:15:41;;;;;;;28.92;14.95;;;;;;;;;;5032156;28;20083;-69
2022/04/05 04:18:07;;;;;;;27.75;14.35;;;;;;;;;;5032095;28;20022;-69
2022/04/05 04:20:32;;;;;;;25.75;14.43;;;;;;;;;;5032437;28;20025;-70
2022/04/05 04:22:57;;;;;;;27.15;16.25;;;;;;;;;;5037344;28;20589;-69
2022/04/05 04:25:22;;;;;;;25.58;15.18;;;;;;;;;;5034740;28;20036;-69
2022/04/05 04:27:47;;;;;;;28.13;13.83;;;;;;;;;;5030090;28;20029;-70
2022/04/05 04:30:13;;;;;;;32.90;16.17;;;;;;;;;;5037895;28;20271;-69
2022/04/05 04:32:39;;;;;;;27.90;16.52;;;;;;;;;;5041655;28;20013;-70
2022/04/05 04:35:04;;;;;;;29.00;16.65;;;;;;;;;;5033742;28;20048;-70
2022/04/05 04:37:30;;;;;;;29.65;16.35;;;;;;;;;;5034553;28;20017;-69
2022/04/05 04:39:55;;;;;;;31.25;15.60;;;;;;;;;;5033805;28;20462;-70
2022/04/05 04:42:20;;;;;;;42.20;18.63;;;;;;;;;;5023539;28;20025;-70
2022/04/05 04:44:45;;;;;;;33.70;17.02;;;;;;;;;;5031124;28;20108;-69
2022/04/05 04:47:11;;;;;;;30.40;17.23;;;;;;;;;;5030667;28;20497;-69
2022/04/05 04:49:36;;;;;;;32.22;17.42;;;;;;;;;;5015604;28;20454;-70
2022/04/05 04:52:02;;;;;;;34.05;16.75;;;;;;;;;;5034859;28;20062;-69
2022/04/05 04:54:28;;;;;;;31.27;18.60;;;;;;;;;;5029606;28;20025;-69
2022/04/05 04:56:53;;;;;;;34.15;16.83;;;;;;;;;;5028864;28;20435;-69
2022/04/05 04:59:18;;;;;;;31.23;18.05;;;;;;;;;;5032494;28;20024;-69
2022/04/05 05:01:43;;;;;;;30.03;19.17;;;;;;;;;;5013060;28;20076;-69
2022/04/05 05:04:08;;;;;;;38.42;20.30;;;;;;;;;;5030644;28;20291;-69
2022/04/05 05:06:34;;;;;;;35.47;17.73;;;;;;;;;;5033516;28;20025;-69
2022/04/05 05:08:59;;;;;;;38.03;17.38;;;;;;;;;;5030228;28;20032;-68
2022/04/05 05:11:25;;;;;;;31.77;16.70;;;;;;;;;;5029528;28;20025;-71
2022/04/05 05:13:50;;;;;;;33.30;19.95;;;;;;;;;;5034032;28;20271;-71
2022/04/05 05:16:15;;;;;;;31.80;17.80;;;;;;;;;;5033435;28;20025;-71
2022/04/05 05:18:40;;;;;;;37.45;22.50;;;;;;;;;;5029683;28;20100;-70
2022/04/05 05:21:06;;;;;;;39.40;21.63;;;;;;;;;;5041238;28;20043;-69
2022/04/05 05:23:31;;;;;;;37.22;22.63;;;;;;;;;;5032472;28;20025;-69
2022/04/05 05:25:56;;;;;;;39.25;18.83;;;;;;;;;;5028757;28;20044;-69
2022/04/05 05:28:21;;;;;;;34.92;19.10;;;;;;;;;;5027105;28;20065;-68
2022/04/05 05:30:46;;;;;;;39.22;18.58;;;;;;;;;;5029679;28;20034;-71
2022/04/05 05:33:12;;;;;;;40.60;21.48;;;;;;;;;;5027691;28;20069;-70
2022/04/05 05:35:37;;;;;;;36.72;20.17;;;;;;;;;;5025780;28;20389;-70
2022/04/05 05:38:03;;;;;;;38.63;20.23;;;;;;;;;;5031995;28;20020;-70
2022/04/05 05:40:28;;;;;;;40.78;19.90;;;;;;;;;;5031962;28;20093;-69
2022/04/05 05:42:55;;;;;;;43.72;21.17;;;;;;;;;;5027544;28;20026;-69
2022/04/05 05:45:21;;;;;;;42.63;22.80;;;;;;;;;;5024575;28;20021;-68
2022/04/05 05:47:46;;;;;;;40.90;22.67;;;;;;;;;;5024747;28;20083;-70
2022/04/05 05:50:13;;;;;;;43.50;20.42;;;;;;;;;;5027124;28;20024;-70
2022/04/05 05:52:38;;;;;;;43.88;22.42;;;;;;;;;;5022158;28;20434;-70
2022/04/05 05:55:04;;;;;;;37.95;19.50;;;;;;;;;;5004068;28;20140;-71
2022/04/05 05:57:29;;;;;;;40.35;21.77;;;;;;;;;;5024758;28;20088;-70
2022/04/05 05:59:54;;;;;;;44.13;22.13;;;;;;;;;;5024379;28;20018;-70
2022/04/05 06:02:19;;;;;;;39.60;20.03;;;;;;;;;;5020816;28;20022;-70
2022/04/05 06:04:45;;;;;;;40.43;19.43;;;;;;;;;;5026755;28;20280;-70
2022/04/05 06:07:10;;;;;;;41.75;20.60;;;;;;;;;;5029142;28;20625;-70
2022/04/05 06:09:35;;;;;;;38.22;20.92;;;;;;;;;;5029097;28;20482;-70
2022/04/05 06:12:00;;;;;;;41.90;19.80;;;;;;;;;;5028853;28;20483;-70
2022/04/05 06:14:25;;;;;;;41.47;22.63;;;;;;;;;;5036274;28;20429;-70
2022/04/05 06:16:51;;;;;;;39.10;18.65;;;;;;;;;;5034762;28;20053;-70
2022/04/05 06:19:16;;;;;;;43.20;22.75;;;;;;;;;;5034513;28;20107;-70
2022/04/05 06:21:41;;;;;;;38.72;19.80;;;;;;;;;;5027755;28;20602;-70
2022/04/05 06:24:06;;;;;;;44.00;23.08;;;;;;;;;;5025677;28;20028;-70
2022/04/05 06:26:31;;;;;;;48.35;23.15;;;;;;;;;;5026444;28;20104;-70
2022/04/05 06:28:57;;;;;;;40.40;21.20;;;;;;;;;;5028490;28;20017;-70
2022/04/05 06:31:23;;;;;;;44.22;20.70;;;;;;;;;;5007767;28;20330;-70
2022/04/05 06:33:48;;;;;;;42.60;22.33;;;;;;;;;;5029334;28;20028;-70
2022/04/05 06:36:13;;;;;;;39.17;20.73;;;;;;;;;;5032121;28;20481;-70
2022/04/05 06:38:38;;;;;;;39.00;20.02;;;;;;;;;;5029231;28;20108;-70
2022/04/05 06:41:03;;;;;;;40.40;19.02;;;;;;;;;;5026789;28;20052;-70
2022/04/05 06:43:30;;;;;;;44.63;21.63;;;;;;;;;;5008549;28;20029;-70
2022/04/05 06:45:55;;;;;;;43.83;21.50;;;;;;;;;;5028526;28;20378;-70
2022/04/05 06:48:20;;;;;;;39.85;22.75;;;;;;;;;;5028174;28;20025;-70
2022/04/05 06:50:47;;;;;;;36.67;19.20;;;;;;;;;;5027683;28;20057;-70
2022/04/05 06:53:12;;;;;;;42.35;22.00;;;;;;;;;;5034977;28;20025;-70
2022/04/05 06:55:37;;;;;;;34.95;19.23;;;;;;;;;;5032343;28;20482;-70
2022/04/05 06:58:03;;;;;;;37.85;19.30;;;;;;;;;;5041676;28;20009;-70
2022/04/05 07:00:28;;;;;;;38.25;20.98;;;;;;;;;;5021424;28;20018;-70
2022/04/05 07:02:54;;;;;;;42.42;22.42;;;;;;;;;;5028433;28;20024;-70
2022/04/05 07:05:20;;;;;;;39.47;20.55;;;;;;;;;;5022520;28;20054;-71
2022/04/05 07:07:45;;;;;;;37.20;19.30;;;;;;;;;;5032340;28;20017;-70
2022/04/05 07:10:14;;;;;;;38.97;18.92;;;;;;;;;;5022146;28;20025;-70
2022/04/05 07:12:40;;;;;;;32.28;17.63;;;;;;;;;;5024455;28;20060;-70
2022/04/05 07:15:05;;;;;;;37.15;17.45;;;;;;;;;;5028951;28;20014;-70
2022/04/05 07:17:31;;;;;;;32.50;17.50;;;;;;;;;;5024831;28;20021;-70
2022/04/05 07:19:56;;;;;;;33.73;20.77;;;;;;;;;;5022194;28;20036;-70
2022/04/05 07:22:21;;;;;;;40.30;20.97;;;;;;;;;;5028511;28;20414;-70
2022/04/05 07:24:46;;;;;;;37.83;18.20;;;;;;;;;;5029815;28;20768;-71
2022/04/05 07:27:12;;;;;;;39.58;19.33;;;;;;;;;;5011417;28;20344;-70
2022/04/05 07:29:37;;;;;;;36.58;17.55;;;;;;;;;;5027083;28;20025;-70
2022/04/05 07:32:02;;;;;;;36.95;17.92;;;;;;;;;;5028935;28;20033;-70
2022/04/05 07:34:28;;;;;;;35.60;21.98;;;;;;;;;;5027877;28;20040;-70
2022/04/05 07:36:53;;;;;;;39.85;17.88;;;;;;;;;;5027370;28;20075;-70
2022/04/05 07:39:21;;;;;;;36.75;16.70;;;;;;;;;;5027587;28;20093;-71
2022/04/05 07:41:46;;;;;;;30.42;13.10;;;;;;;;;;5030624;28;20418;-71
2022/04/05 07:44:11;;;;;;;25.52;13.88;;;;;;;;;;5030400;28;20109;-70
2022/04/05 07:46:36;;;;;;;29.58;15.23;;;;;;;;;;5033106;28;20725;-71
2022/04/05 07:49:02;;;;;;;27.90;15.98;;;;;;;;;;5033412;28;20440;-70
2022/04/05 07:51:27;;;;;;;27.70;14.27;;;;;;;;;;5027672;28;20093;-70
2022/04/05 07:53:52;;;;;;;32.05;15.70;;;;;;;;;;5031126;28;20032;-70
2022/04/05 07:56:18;;;;;;;27.27;14.18;;;;;;;;;;5030875;28;20038;-70
2022/04/05 07:58:43;;;;;;;29.23;14.97;;;;;;;;;;5032838;28;20040;-70
2022/04/05 08:01:09;;;;;;;27.83;14.05;;;;;;;;;;5031799;28;20371;-70
2022/04/05 08:03:34;;;;;;;25.42;14.35;;;;;;;;;;5029856;28;20500;-70
2022/04/05 08:06:00;;;;;;;28.70;13.95;;;;;;;;;;5030126;28;20029;-70
2022/04/05 08:08:25;;;;;;;26.17;12.63;;;;;;;;;;5030540;28;20389;-70
2022/04/05 08:10:50;;;;;;;24.38;12.73;;;;;;;;;;5031385;28;20024;-70
2022/04/05 08:13:36;;;;;;;23.83;13.18;;;;;;;;;;5075857;22;20071;-89
2022/04/05 08:16:01;;;;;;;21.75;11.10;;;;;;;;;;5010325;28;20438;-89
2022/04/05 08:18:26;;;;;;;21.10;11.02;;;;;;;;;;5013297;28;20116;-90
2022/04/05 08:21:01;;;;;;;20.30;14.32;;;;;;;;;;5014685;28;20100;-89
2022/04/05 08:23:29;;;;;;;19.90;11.02;;;;;;;;;;5031608;28;20028;-88
2022/04/05 08:26:03;;;;;;;21.77;11.77;;;;;;;;;;5031185;28;20230;-89
2022/04/05 08:28:37;;;;;;;24.42;12.93;;;;;;;;;;5032936;28;20013;-88
2022/04/05 08:31:02;;;;;;;22.27;11.95;;;;;;;;;;5032043;28;20071;-89
2022/04/05 08:33:37;;;;;;;20.92;13.35;;;;;;;;;;5031790;28;20021;-89
2022/04/05 08:36:05;;;;;;;26.58;13.52;;;;;;;;;;5033356;28;20052;-89
2022/04/05 08:38:30;;;;;;;20.25;12.57;;;;;;;;;;5028545;28;20053;-89
2022/04/05 08:40:59;;;;;;;24.92;16.65;;;;;;;;;;5031125;28;20095;-88
2022/04/05 08:43:26;;;;;;;21.80;13.95;;;;;;;;;;5011537;28;20027;-89
2022/04/05 08:48:59;;;;;;;21.08;14.57;;;;;;;;;;5011181;28;20040;-88
2022/04/05 08:51:52;;;;;;;27.42;17.20;;;;;;;;;;5025236;28;20025;-88
2022/04/05 08:54:16;;;;;;;23.75;15.25;;;;;;;;;;5024935;28;20040;-89
2022/04/05 08:56:44;;;;;;;21.98;17.38;;;;;;;;;;5030390;28;20017;-90
2022/04/05 08:59:18;;;;;;;24.10;16.20;;;;;;;;;;5032631;28;20021;-89
2022/04/05 09:01:53;;;;;;;26.45;15.35;;;;;;;;;;5015877;28;20036;-88
2022/04/05 09:04:23;;;;;;;20.67;13.70;;;;;;;;;;5030020;28;20108;-88
2022/04/05 09:06:52;;;;;;;26.67;15.82;;;;;;;;;;5013060;28;20018;-90
2022/04/05 09:09:28;;;;;;;23.60;16.05;;;;;;;;;;5009852;28;20049;-89
2022/04/05 09:11:54;;;;;;;26.15;17.23;;;;;;;;;;5020217;28;20083;-89
2022/04/05 09:16:46;;;;;;;25.55;16.48;;;;;;;;;;5048951;28;20049;-68
2022/04/05 09:19:12;;;;;;;21.75;16.42;;;;;;;;;;5030898;28;20028;-68
2022/04/05 09:21:54;;;;;;;25.45;15.70;;;;;;;;;;5054396;28;20027;-68
2022/04/05 09:24:19;;;;;;;21.83;15.55;;;;;;;;;;5037564;28;20481;-68
2022/04/05 09:26:45;;;;;;;21.35;15.02;;;;;;;;;;5035529;28;20028;-68
2022/04/05 09:29:11;;;;;;;25.65;15.80;;;;;;;;;;5037981;28;20466;-68
2022/04/05 09:31:44;;;;;;;28.80;15.68;;;;;;;;;;5026406;28;20102;-68
2022/04/05 09:34:13;;;;;;;28.63;16.65;;;;;;;;;;5033651;28;20018;-68
2022/04/05 09:36:43;;;;;;;24.13;15.75;;;;;;;;;;5040656;28;20071;-68
2022/04/05 09:39:09;;;;;;;25.65;14.60;;;;;;;;;;5044488;28;20053;-68
2022/04/05 09:41:34;;;;;;;25.30;16.20;;;;;;;;;;5038729;28;20049;-69
2022/04/05 09:44:00;;;;;;;22.50;15.13;;;;;;;;;;5029340;28;20367;-68
2022/04/05 09:46:28;;;;;;;22.67;14.15;;;;;;;;;;5038430;28;20832;-68
2022/04/05 09:49:09;;;;;;;22.02;16.27;;;;;;;;;;5031505;28;20082;-68
2022/04/05 09:51:39;;;;;;;26.08;15.68;;;;;;;;;;5030768;28;20052;-68
2022/04/05 09:54:05;;;;;;;25.48;15.27;;;;;;;;;;5024535;28;20032;-69
2022/04/05 09:56:34;;;;;;;25.13;17.27;;;;;;;;;;5033189;28;20021;-68
2022/04/05 09:59:04;;;;;;;25.23;16.30;;;;;;;;;;5039792;28;20021;-68
2022/04/05 10:01:31;;;;;;;24.00;15.38;;;;;;;;;;5039329;28;20460;-68
2022/04/05 10:04:05;;;;;;;23.05;14.55;;;;;;;;;;5040550;28;20059;-68
2022/04/05 10:06:31;;;;;;;23.88;14.60;;;;;;;;;;5041908;28;20469;-68
2022/04/05 10:08:57;;;;;;;22.10;14.52;;;;;;;;;;5035683;28;20036;-68
2022/04/05 10:11:29;;;;;;;26.70;15.10;;;;;;;;;;5032595;28;20113;-68
2022/04/05 10:13:55;;;;;;;21.08;13.30;;;;;;;;;;5035332;28;20099;-68
2022/04/05 10:16:23;;;;;;;23.45;14.15;;;;;;;;;;5038125;28;20018;-68
2022/04/05 10:18:49;;;;;;;21.88;13.25;;;;;;;;;;5036958;28;20109;-68
2022/04/05 10:21:15;;;;;;;20.65;14.25;;;;;;;;;;5034523;28;20024;-68
2022/04/05 10:23:42;;;;;;;25.02;14.63;;;;;;;;;;5027272;28;20029;-68
2022/04/05 10:26:07;;;;;;;20.98;14.00;;;;;;;;;;5038353;28;20025;-68
2022/04/05 10:28:34;;;;;;;25.55;14.20;;;;;;;;;;5035699;28;20032;-68
2022/04/05 10:31:00;;;;;;;20.80;14.38;;;;;;;;;;5039936;28;20013;-68
2022/04/05 10:33:33;;;;;;;23.20;13.32;;;;;;;;;;5037834;28;20017;-68
2022/04/05 10:36:00;;;;;;;22.63;14.52;;;;;;;;;;5035842;28;20021;-68
2022/04/05 10:38:27;;;;;;;23.55;15.88;;;;;;;;;;5040422;28;20530;-68
2022/04/05 10:41:10;;;;;;;28.02;17.25;;;;;;;;;;5032653;28;20035;-69
2022/04/05 10:43:38;;;;;;;25.90;17.05;;;;;;;;;;5033339;28;20489;-68
2022/04/05 10:46:04;;;;;;;34.97;17.80;;;;;;;;;;5038591;28;20031;-68
2022/04/05 10:48:31;;;;;;;26.50;16.77;;;;;;;;;;5026303;28;20026;-68
2022/04/05 10:50:59;;;;;;;23.80;14.48;;;;;;;;;;5036310;28;20028;-68
2022/04/05 10:53:38;;;;;;;20.58;15.13;;;;;;;;;;5033840;28;20477;-68
2022/04/05 10:56:03;;;;;;;26.17;17.90;;;;;;;;;;5032583;28;20025;-68
2022/04/05 10:58:29;;;;;;;23.45;15.30;;;;;;;;;;5040842;28;20020;-69
2022/04/05 11:01:13;;;;;;;23.40;15.00;;;;;;;;;;5038772;28;20408;-68
2022/04/05 11:03:38;;;;;;;22.30;13.18;;;;;;;;;;5041774;28;20032;-68
2022/04/05 11:06:04;;;;;;;22.02;14.55;;;;;;;;;;5033706;28;20320;-68
2022/04/05 11:08:29;;;;;;;23.48;14.85;;;;;;;;;;5036772;28;20025;-67
2022/04/05 11:10:58;;;;;;;20.95;13.88;;;;;;;;;;5035695;28;20021;-68
2022/04/05 11:13:30;;;;;;;18.95;11.82;;;;;;;;;;5041044;28;20017;-68
2022/04/05 11:15:56;;;;;;;15.63;10.95;;;;;;;;;;5040372;28;20448;-68
2022/04/05 11:18:24;;;;;;;18.40;13.00;;;;;;;;;;5038569;28;20017;-68
2022/04/05 11:20:51;;;;;;;18.58;13.32;;;;;;;;;;5038064;28;20028;-69
2022/04/05 11:23:17;;;;;;;14.60;11.32;;;;;;;;;;5033404;28;20409;-68
2022/04/05 11:25:43;;;;;;;23.15;14.38;;;;;;;;;;5031998;28;20021;-68
2022/04/05 11:28:12;;;;;;;22.55;12.13;;;;;;;;;;5037138;28;20017;-68
2022/04/05 11:31:02;;;;;;;20.25;12.23;;;;;;;;;;5034954;28;20021;-68
2022/04/05 11:33:33;;;;;;;23.52;13.82;;;;;;;;;;5036802;28;20028;-68
2022/04/05 11:36:00;;;;;;;16.35;12.20;;;;;;;;;;5036556;28;20025;-68
2022/04/05 11:38:26;;;;;;;15.18;10.77;;;;;;;;;;5036948;28;20014;-68
2022/04/05 11:40:55;;;;;;;15.45;10.43;;;;;;;;;;5035200;28;20422;-68
2022/04/05 11:43:24;;;;;;;15.38;10.32;;;;;;;;;;5020072;28;20153;-68
2022/04/05 11:45:51;;;;;;;18.20;10.38;;;;;;;;;;5041108;28;20076;-69
2022/04/05 11:48:16;;;;;;;16.80;10.50;;;;;;;;;;5030563;28;20033;-69
2022/04/05 11:50:41;;;;;;;17.77;11.60;;;;;;;;;;5040801;28;20029;-69
2022/04/05 11:53:19;;;;;;;16.60;10.68;;;;;;;;;;5030402;28;20091;-69
2022/04/05 11:56:00;;;;;;;17.92;11.85;;;;;;;;;;5036783;28;20033;-68
2022/04/05 11:58:26;;;;;;;22.13;12.50;;;;;;;;;;5033763;28;20340;-68
2022/04/05 12:00:52;;;;;;;17.15;11.57;;;;;;;;;;5032920;28;20079;-68
2022/04/05 12:03:18;;;;;;;21.92;12.68;;;;;;;;;;5039282;28;20028;-68
2022/04/05 12:05:43;;;;;;;20.27;12.37;;;;;;;;;;5041128;28;20033;-69
2022/04/05 12:08:12;;;;;;;21.42;11.55;;;;;;;;;;5032467;28;20639;-69
2022/04/05 12:10:38;;;;;;;16.27;10.50;;;;;;;;;;5031733;28;20029;-68
2022/04/05 12:13:03;;;;;;;15.57;10.60;;;;;;;;;;5031313;28;20017;-69
2022/04/05 12:15:28;;;;;;;19.40;13.90;;;;;;;;;;5034366;28;20481;-68
2022/04/05 12:18:12;;;;;;;21.33;15.98;;;;;;;;;;5037958;28;20426;-69
2022/04/05 12:20:37;;;;;;;22.52;14.32;;;;;;;;;;5036617;28;20022;-69
2022/04/05 12:23:03;;;;;;;18.73;13.57;;;;;;;;;;5027703;28;20025;-68
2022/04/05 12:25:28;;;;;;;15.93;10.40;;;;;;;;;;5035510;28;20756;-69
2022/04/05 12:27:53;;;;;;;12.93;9.53;;;;;;;;;;5052249;28;20036;-68
2022/04/05 12:30:26;;;;;;;18.45;10.95;;;;;;;;;;5032429;28;20370;-68
2022/04/05 12:32:52;;;;;;;14.93;9.07;;;;;;;;;;5042803;28;20032;-69
2022/04/05 12:35:19;;;;;;;15.93;9.63;;;;;;;;;;5040465;28;20017;-68
2022/04/05 12:37:44;;;;;;;12.70;9.95;;;;;;;;;;5039536;28;20312;-69
2022/04/05 12:40:22;;;;;;;14.13;9.63;;;;;;;;;;5036226;28;20508;-68
2022/04/05 12:42:48;;;;;;;16.45;11.05;;;;;;;;;;5047267;28;20025;-68
2022/04/05 12:45:13;;;;;;;17.43;11.43;;;;;;;;;;5037625;28;20036;-68
2022/04/05 12:47:43;;;;;;;16.63;11.60;;;;;;;;;;5038124;28;20330;-68
2022/04/05 12:50:08;;;;;;;15.40;11.05;;;;;;;;;;5037196;28;20288;-68
2022/04/05 12:52:34;;;;;;;16.05;10.52;;;;;;;;;;5048780;28;20017;-68
2022/04/05 12:55:00;;;;;;;14.70;10.57;;;;;;;;;;5024310;28;20021;-68
2022/04/05 12:57:27;;;;;;;12.57;10.35;;;;;;;;;;5037364;28;20033;-68
2022/04/05 12:59:54;;;;;;;15.80;11.73;;;;;;;;;;5039960;28;20067;-68
2022/04/05 13:02:19;;;;;;;10.23;5.72;;;;;;;;;;5043783;28;20489;-69
2022/04/05 13:04:44;;;;;;;13.55;9.77;;;;;;;;;;5040044;28;20148;-68
2022/04/05 13:07:09;;;;;;;12.63;10.98;;;;;;;;;;5042092;28;20030;-69
2022/04/05 13:09:35;;;;;;;14.07;10.05;;;;;;;;;;5040257;28;20033;-69
2022/04/05 13:12:07;;;;;;;11.77;8.70;;;;;;;;;;5050226;28;20059;-68
2022/04/05 13:14:33;;;;;;;12.73;8.38;;;;;;;;;;5037829;28;20017;-68
2022/04/05 13:17:01;;;;;;;13.65;9.15;;;;;;;;;;5037977;28;20040;-69
2022/04/05 13:19:27;;;;;;;14.25;8.77;;;;;;;;;;5032948;28;20087;-68
2022/04/05 13:21:53;;;;;;;17.73;9.73;;;;;;;;;;5033147;28;20457;-68
2022/04/05 13:24:19;;;;;;;18.40;9.45;;;;;;;;;;5042765;28;20017;-69
2022/04/05 13:26:49;;;;;;;13.77;9.05;;;;;;;;;;5049328;28;20036;-68
2022/04/05 13:29:16;;;;;;;13.00;6.20;;;;;;;;;;5035244;28;20288;-69
2022/04/05 13:31:45;;;;;;;9.75;6.75;;;;;;;;;;5041964;28;20283;-68
2022/04/05 13:34:12;;;;;;;10.68;7.80;;;;;;;;;;5040839;28;20079;-69
2022/04/05 13:36:37;;;;;;;10.07;6.38;;;;;;;;;;5044132;28;20041;-69
2022/04/05 13:39:02;;;;;;;7.53;5.53;;;;;;;;;;5031113;28;20084;-70
2022/04/05 13:41:27;;;;;;;7.60;4.75;;;;;;;;;;5047890;28;20097;-70
2022/04/05 13:43:55;;;;;;;10.93;6.37;;;;;;;;;;5029407;28;20051;-70
2022/04/05 13:46:21;;;;;;;7.45;6.75;;;;;;;;;;5025624;28;20699;-70
2022/04/05 13:48:46;;;;;;;8.00;6.32;;;;;;;;;;5031896;28;20109;-70
2022/04/05 13:51:11;;;;;;;9.15;6.90;;;;;;;;;;5044521;28;20037;-70
2022/04/05 13:53:36;;;;;;;10.07;8.37;;;;;;;;;;5033065;28;20136;-70
2022/04/05 13:56:01;;;;;;;12.63;7.30;;;;;;;;;;5033619;28;20298;-70
2022/04/05 13:58:27;;;;;;;11.88;7.55;;;;;;;;;;5039826;28;20052;-70
2022/04/05 14:00:52;;;;;;;13.02;7.63;;;;;;;;;;5027691;28;20104;-70
2022/04/05 14:03:19;;;;;;;10.65;7.65;;;;;;;;;;5027953;28;20469;-69
2022/04/05 14:05:44;;;;;;;8.85;6.53;;;;;;;;;;5042251;28;20017;-70
2022/04/05 14:08:10;;;;;;;13.65;7.60;;;;;;;;;;5021843;28;20030;-70
2022/04/05 14:10:35;;;;;;;9.55;7.05;;;;;;;;;;5032948;28;20466;-67
2022/04/05 14:13:00;;;;;;;12.30;7.72;;;;;;;;;;5014445;28;20025;-67
2022/04/05 14:15:25;;;;;;;17.53;8.57;;;;;;;;;;5036895;28;20150;-69
2022/04/05 14:17:50;;;;;;;11.03;7.80;;;;;;;;;;5033698;28;20625;-68
2022/04/05 14:20:16;;;;;;;14.10;8.53;;;;;;;;;;5039960;28;20279;-70
2022/04/05 14:22:42;;;;;;;13.98;8.95;;;;;;;;;;5036244;28;20302;-68